Time;durP1;ratioP1;P1;durP2;ratioP2;P2;SDS_P1;SDS_P2;PMS_P1;PMS_P2;Temp;Humidity;BMP_temperature;BMP_pressure;BME280_temperature;BME280_humidity;BME280_pressure;Samples;Min_cycle;Max_cycle;Signal;HPM_P1;HPM_P2
2023/11/13 00:02:23;;;;;;;24.45;15.73;;;;;;;5.51;100.00;100173.72;5034595;28;20049;-80
2023/11/13 00:04:50;;;;;;;26.35;15.85;;;;;;;5.48;100.00;100161.81;5035406;28;20129;-79
2023/11/13 00:07:16;;;;;;;22.95;16.25;;;;;;;5.46;100.00;100144.75;5035949;28;20059;-80
2023/11/13 00:09:43;;;;;;;34.97;16.27;;;;;;;5.44;100.00;100129.31;5036743;28;20120;-80
2023/11/13 00:12:10;;;;;;;25.60;15.85;;;;;;;5.49;100.00;100126.31;5036554;28;20085;-80
2023/11/13 00:14:37;;;;;;;24.25;15.98;;;;;;;5.52;100.00;100119.09;5036657;28;20072;-79
2023/11/13 00:17:03;;;;;;;26.58;14.77;;;;;;;5.66;100.00;100126.47;5036131;28;20542;-79
2023/11/13 00:19:31;;;;;;;25.20;14.70;;;;;;;5.70;100.00;100119.19;5035250;28;20045;-79
2023/11/13 00:21:58;;;;;;;29.25;14.68;;;;;;;5.85;100.00;100132.59;5035118;28;20443;-78
2023/11/13 00:24:25;;;;;;;23.75;13.60;;;;;;;5.87;100.00;100146.25;5040276;28;20068;-79
2023/11/13 00:26:52;;;;;;;21.35;13.32;;;;;;;5.95;100.00;100146.44;5039908;28;20088;-80
2023/11/13 00:29:19;;;;;;;20.52;12.65;;;;;;;5.91;100.00;100145.06;5040628;28;20119;-79
2023/11/13 00:31:46;;;;;;;20.08;13.00;;;;;;;5.91;100.00;100151.06;5042607;28;20057;-81
2023/11/13 00:34:12;;;;;;;22.45;13.52;;;;;;;5.88;100.00;100133.13;5039331;28;20077;-79
2023/11/13 00:36:40;;;;;;;19.70;13.13;;;;;;;5.89;100.00;100134.81;5039011;28;20105;-81
2023/11/13 00:39:10;;;;;;;19.83;12.07;;;;;;;5.80;100.00;100124.41;5039792;28;20575;-79
2023/11/13 00:41:39;;;;;;;17.13;12.35;;;;;;;5.81;100.00;100118.25;5040806;28;20041;-79
2023/11/13 00:44:06;;;;;;;21.42;12.48;;;;;;;5.82;100.00;100123.31;5039755;28;20106;-79
2023/11/13 00:46:33;;;;;;;21.05;13.00;;;;;;;5.80;100.00;100114.00;5039385;28;20046;-79
2023/11/13 00:49:00;;;;;;;20.42;12.55;;;;;;;5.87;100.00;100115.09;5040107;28;20080;-79
2023/11/13 00:51:26;;;;;;;18.95;12.13;;;;;;;5.81;100.00;100113.06;5040494;28;20085;-79
2023/11/13 00:53:54;;;;;;;20.33;11.65;;;;;;;5.83;100.00;100113.72;5038802;28;20058;-79
2023/11/13 00:56:21;;;;;;;19.55;12.32;;;;;;;5.85;100.00;100117.00;5039480;28;20057;-79
2023/11/13 00:58:47;;;;;;;18.95;12.80;;;;;;;5.83;100.00;100114.56;5039167;28;20112;-80
2023/11/13 01:01:14;;;;;;;20.02;12.43;;;;;;;5.81;100.00;100100.88;5039519;28;20060;-80
2023/11/13 01:03:42;;;;;;;18.23;12.38;;;;;;;5.81;100.00;100103.47;5040659;28;20364;-81
2023/11/13 01:06:09;;;;;;;23.13;12.73;;;;;;;5.80;100.00;100101.84;5039919;28;20060;-81
2023/11/13 01:08:35;;;;;;;22.80;12.27;;;;;;;5.88;100.00;100098.56;5040166;28;20083;-81
2023/11/13 01:11:03;;;;;;;19.02;12.90;;;;;;;5.92;100.00;100102.56;5038688;28;20428;-81
2023/11/13 01:13:30;;;;;;;21.77;13.10;;;;;;;5.88;100.00;100103.75;5040056;28;20053;-78
2023/11/13 01:15:57;;;;;;;22.52;12.68;;;;;;;5.85;100.00;100093.66;5037524;28;20077;-78
2023/11/13 01:18:24;;;;;;;23.85;12.98;;;;;;;5.89;100.00;100102.84;5038061;28;20353;-79
2023/11/13 01:20:51;;;;;;;25.60;12.32;;;;;;;5.94;100.00;100105.84;5037239;28;20084;-79
2023/11/13 01:23:17;;;;;;;18.92;10.98;;;;;;;5.97;100.00;100102.97;5037804;28;20566;-79
2023/11/13 01:25:44;;;;;;;23.73;12.35;;;;;;;6.11;100.00;100107.72;5039245;28;20107;-80
2023/11/13 01:28:12;;;;;;;16.88;11.25;;;;;;;6.10;100.00;100090.50;5039144;28;20062;-80
2023/11/13 01:30:38;;;;;;;15.18;11.05;;;;;;;6.13;100.00;100085.03;5042273;28;20085;-80
2023/11/13 01:33:06;;;;;;;16.73;11.18;;;;;;;6.13;100.00;100076.41;5039899;28;20128;-79
2023/11/13 01:35:32;;;;;;;18.92;11.85;;;;;;;6.11;100.00;100073.97;5039889;28;20416;-80
2023/11/13 01:37:59;;;;;;;20.67;10.68;;;;;;;6.08;100.00;100082.03;5039983;28;20045;-79
2023/11/13 01:40:26;;;;;;;16.35;10.50;;;;;;;6.09;100.00;100083.66;5040822;28;20065;-80
2023/11/13 01:42:52;;;;;;;19.05;10.18;;;;;;;6.08;100.00;100071.63;5040257;28;20080;-80
2023/11/13 01:45:20;;;;;;;15.73;10.52;;;;;;;6.11;100.00;100068.75;5038010;28;20419;-80
2023/11/13 01:47:47;;;;;;;15.18;10.63;;;;;;;6.12;100.00;100060.00;5038648;28;20132;-81
2023/11/13 01:50:15;;;;;;;15.55;10.15;;;;;;;6.15;100.00;100061.47;5038022;28;20052;-80
2023/11/13 01:52:43;;;;;;;20.75;10.05;;;;;;;6.22;100.00;100067.75;5037334;28;20137;-79
2023/11/13 01:55:11;;;;;;;18.67;10.15;;;;;;;6.19;100.00;100047.25;5037467;28;20128;-79
2023/11/13 01:57:38;;;;;;;15.38;9.82;;;;;;;6.17;100.00;100024.00;5038331;28;20274;-79
2023/11/13 02:00:07;;;;;;;16.33;10.13;;;;;;;6.27;100.00;100034.38;5037003;28;20085;-79
2023/11/13 02:02:36;;;;;;;17.70;10.70;;;;;;;6.29;100.00;100038.47;5038132;28;20078;-80
2023/11/13 02:05:02;;;;;;;15.45;9.63;;;;;;;6.32;100.00;100038.19;5039559;28;20045;-79
2023/11/13 02:07:29;;;;;;;14.43;9.68;;;;;;;6.42;100.00;100035.53;5039832;28;20060;-80
2023/11/13 02:09:56;;;;;;;14.20;9.02;;;;;;;6.36;100.00;100028.31;5040200;28;20113;-79
2023/11/13 02:12:23;;;;;;;18.13;9.63;;;;;;;6.36;100.00;100028.31;5039926;28;20049;-80
2023/11/13 02:14:50;;;;;;;14.27;9.45;;;;;;;6.35;100.00;100028.47;5039953;28;20143;-79
2023/11/13 02:17:15;;;;;;;14.95;9.00;;;;;;;6.37;100.00;100016.16;5039181;28;20132;-80
2023/11/13 02:19:45;;;;;;;13.63;9.90;;;;;;;6.29;100.00;100007.28;5038138;28;20080;-80
2023/11/13 02:22:12;;;;;;;16.05;8.80;;;;;;;6.35;100.00;100015.47;5037628;28;20049;-80
2023/11/13 02:24:40;;;;;;;14.48;8.77;;;;;;;6.42;100.00;100026.94;5039096;28;20084;-80
2023/11/13 02:27:07;;;;;;;13.80;9.10;;;;;;;6.44;100.00;100027.59;5038415;28;20091;-80
2023/11/13 02:29:34;;;;;;;13.80;9.00;;;;;;;6.36;100.00;100032.69;5038750;28;20391;-80
2023/11/13 02:32:01;;;;;;;12.90;8.90;;;;;;;6.30;100.00;100027.13;5038230;28;20088;-80
2023/11/13 02:34:27;;;;;;;13.80;9.90;;;;;;;6.40;100.00;100036.66;5038263;28;20092;-81
2023/11/13 02:36:54;;;;;;;13.27;9.18;;;;;;;6.39;100.00;100032.41;5037610;28;20129;-80
2023/11/13 02:39:22;;;;;;;18.25;9.45;;;;;;;6.43;100.00;100046.75;5038390;28;20064;-80
2023/11/13 02:41:51;;;;;;;11.88;8.63;;;;;;;6.39;100.00;100035.84;5036639;28;20508;-80
2023/11/13 02:44:18;;;;;;;13.43;9.27;;;;;;;6.44;100.00;100040.59;5037131;28;20049;-81
2023/11/13 02:46:45;;;;;;;14.73;8.63;;;;;;;6.52;100.00;100048.50;5037503;28;20054;-80
2023/11/13 02:49:13;;;;;;;12.25;9.10;;;;;;;6.50;100.00;100053.03;5042547;28;20059;-81
2023/11/13 02:51:40;;;;;;;13.40;8.65;;;;;;;6.47;100.00;100045.50;5037494;28;20053;-81
2023/11/13 02:54:07;;;;;;;12.90;8.95;;;;;;;6.46;100.00;100043.88;5037671;28;20200;-81
2023/11/13 02:56:33;;;;;;;11.57;8.70;;;;;;;6.47;100.00;100040.31;5037124;28;20586;-81
2023/11/13 02:59:01;;;;;;;12.30;8.55;;;;;;;6.46;100.00;100039.50;5036773;28;20084;-81
2023/11/13 03:01:29;;;;;;;14.25;8.38;;;;;;;6.49;100.00;100043.59;5037237;28;20558;-81
2023/11/13 03:03:56;;;;;;;13.32;8.90;;;;;;;6.51;100.00;100047.69;5036957;28;20042;-80
2023/11/13 03:06:23;;;;;;;14.38;9.02;;;;;;;6.70;100.00;100057.16;5037204;28;20088;-80
2023/11/13 03:08:49;;;;;;;11.73;8.48;;;;;;;6.58;100.00;100050.53;5036903;28;20530;-81
2023/11/13 03:11:16;;;;;;;14.85;8.77;;;;;;;6.51;100.00;100046.88;5027995;28;20080;-80
2023/11/13 03:13:43;;;;;;;13.20;8.88;;;;;;;6.59;100.00;100042.59;5035785;28;20259;-80
2023/11/13 03:16:12;;;;;;;15.02;8.93;;;;;;;6.76;100.00;100040.97;5035896;28;20069;-80
2023/11/13 03:18:39;;;;;;;16.95;9.30;;;;;;;6.59;100.00;100039.16;5036536;28;20089;-80
2023/11/13 03:21:07;;;;;;;14.35;9.35;;;;;;;6.56;100.00;100021.25;5036036;28;20160;-80
2023/11/13 03:23:34;;;;;;;14.48;9.13;;;;;;;6.53;100.00;100024.97;5044447;28;20073;-79
2023/11/13 03:26:03;;;;;;;11.98;8.40;;;;;;;6.55;100.00;100014.44;5047400;28;20128;-79
2023/11/13 03:28:30;;;;;;;14.57;9.52;;;;;;;6.72;100.00;100021.41;5047126;28;20045;-81
2023/11/13 03:30:56;;;;;;;12.32;8.65;;;;;;;6.86;100.00;100033.13;5044493;28;20064;-80
2023/11/13 03:33:25;;;;;;;13.90;8.82;;;;;;;6.79;100.00;100030.28;5047812;28;20049;-79
2023/11/13 03:35:51;;;;;;;15.88;10.23;;;;;;;6.68;100.00;100027.88;5048067;28;20042;-79
2023/11/13 03:38:18;;;;;;;11.93;8.80;;;;;;;6.70;100.00;100035.53;5047094;28;20053;-80
2023/11/13 03:40:44;;;;;;;14.23;9.63;;;;;;;6.88;100.00;100044.19;5047227;28;20091;-80
2023/11/13 03:43:11;;;;;;;15.85;9.52;;;;;;;6.84;100.00;100040.25;5045008;28;20542;-78
2023/11/13 03:45:38;;;;;;;13.05;8.70;;;;;;;6.76;100.00;100043.56;5042711;28;20556;-79
2023/11/13 03:48:05;;;;;;;17.38;9.15;;;;;;;6.71;100.00;100043.19;5041640;28;20073;-80
2023/11/13 03:50:33;;;;;;;14.20;9.82;;;;;;;6.83;100.00;100055.03;5035103;28;20060;-79
2023/11/13 03:52:59;;;;;;;12.90;9.60;;;;;;;6.76;100.00;100051.38;5034172;28;20136;-79
2023/11/13 03:55:26;;;;;;;15.75;9.82;;;;;;;6.80;100.00;100055.31;5033839;28;20472;-79
2023/11/13 03:57:53;;;;;;;15.35;9.80;;;;;;;6.77;100.00;100055.59;5034313;28;20052;-80
2023/11/13 04:00:20;;;;;;;15.88;10.05;;;;;;;6.74;100.00;100060.28;5036632;28;20083;-79
2023/11/13 04:02:48;;;;;;;18.98;11.07;;;;;;;6.75;100.00;100044.53;5035700;28;20053;-80
2023/11/13 04:05:14;;;;;;;17.88;10.75;;;;;;;6.59;100.00;100021.78;5036016;28;20387;-80
2023/11/13 04:07:42;;;;;;;19.13;11.80;;;;;;;6.70;100.00;100046.75;5035876;28;20118;-80
2023/11/13 04:10:13;;;;;;;21.08;11.45;;;;;;;6.74;100.00;100042.91;5036559;28;20045;-80
2023/11/13 04:12:40;;;;;;;17.77;11.43;;;;;;;6.73;100.00;100041.25;5035364;28;20085;-79
2023/11/13 04:15:08;;;;;;;16.27;11.23;;;;;;;6.81;100.00;100054.34;5034624;28;20057;-79
2023/11/13 04:17:35;;;;;;;20.05;11.77;;;;;;;6.80;100.00;100057.91;5034640;28;20045;-80
2023/11/13 04:20:04;;;;;;;19.63;12.02;;;;;;;6.72;100.00;100052.63;5034752;28;20547;-80
2023/11/13 04:22:31;;;;;;;20.90;12.60;;;;;;;6.80;100.00;100070.09;5034416;28;20050;-80
2023/11/13 04:24:59;;;;;;;20.45;11.93;;;;;;;6.80;100.00;100068.31;5034428;28;20041;-80
2023/11/13 04:27:26;;;;;;;18.73;12.18;;;;;;;6.80;100.00;100070.91;5035143;28;20088;-80
2023/11/13 04:29:53;;;;;;;22.27;12.25;;;;;;;6.82;100.00;100076.78;5035567;28;20053;-80
2023/11/13 04:32:20;;;;;;;18.90;12.30;;;;;;;6.83;100.00;100062.00;5035443;28;20141;-79
2023/11/13 04:34:46;;;;;;;19.52;12.07;;;;;;;6.81;100.00;100075.16;5035213;28;20049;-80
2023/11/13 04:37:14;;;;;;;18.40;12.65;;;;;;;6.81;100.00;100064.75;5034674;28;20196;-80
2023/11/13 04:39:41;;;;;;;22.20;12.98;;;;;;;6.80;100.00;100057.09;5035856;28;20427;-80
2023/11/13 04:42:09;;;;;;;20.77;12.57;;;;;;;6.78;100.00;100054.66;5035623;28;20083;-80
2023/11/13 04:44:36;;;;;;;18.45;12.60;;;;;;;6.81;100.00;100058.72;5036337;28;20046;-81
2023/11/13 04:47:02;;;;;;;25.80;13.77;;;;;;;6.77;100.00;100050.41;5035210;28;20116;-81
2023/11/13 04:49:30;;;;;;;23.85;13.25;;;;;;;6.80;100.00;100065.72;5035400;28;20118;-80
2023/11/13 04:54:38;;;;;;;27.23;14.73;;;;;;;6.83;100.00;100062.84;5037808;28;20045;-80
2023/11/13 04:57:05;;;;;;;21.20;14.20;;;;;;;6.84;100.00;100064.47;5034737;28;20092;-80
2023/11/13 04:59:33;;;;;;;23.90;14.00;;;;;;;6.88;100.00;100068.41;5036706;28;20096;-80
2023/11/13 05:02:00;;;;;;;24.27;15.40;;;;;;;6.82;100.00;100069.00;5036629;28;20110;-81
2023/11/13 05:04:27;;;;;;;22.70;13.93;;;;;;;6.90;100.00;100079.50;5037080;28;20464;-81
2023/11/13 05:06:55;;;;;;;26.70;15.18;;;;;;;6.93;100.00;100062.78;5041137;28;20054;-80
2023/11/13 05:09:23;;;;;;;22.95;14.23;;;;;;;6.91;100.00;100055.13;5039089;28;20053;-80
2023/11/13 05:11:50;;;;;;;25.60;15.32;;;;;;;6.95;100.00;100060.84;5040096;28;20049;-80
2023/11/13 05:14:17;;;;;;;21.80;15.23;;;;;;;6.99;100.00;100051.78;5040056;28;20531;-81
2023/11/13 05:16:45;;;;;;;26.88;15.93;;;;;;;7.06;100.00;100047.63;5039393;28;20068;-81
2023/11/13 05:19:12;;;;;;;26.50;15.57;;;;;;;7.00;100.00;100043.03;5039865;28;20120;-80
2023/11/13 05:21:38;;;;;;;27.20;16.23;;;;;;;7.06;100.00;100042.44;5039679;28;20175;-80
2023/11/13 05:24:07;;;;;;;27.90;15.60;;;;;;;7.07;100.00;100040.66;5040268;28;20133;-81
2023/11/13 05:26:35;;;;;;;26.83;16.40;;;;;;;7.08;100.00;100034.47;5041698;28;20061;-81
2023/11/13 05:29:01;;;;;;;29.92;16.50;;;;;;;7.06;100.00;100041.63;5041014;28;20134;-81
2023/11/13 05:31:28;;;;;;;26.70;17.08;;;;;;;7.08;100.00;100037.09;5041453;28;20121;-81
2023/11/13 05:33:56;;;;;;;24.52;15.60;;;;;;;7.07;100.00;100032.84;5040804;28;20460;-79
2023/11/13 05:36:23;;;;;;;26.98;16.02;;;;;;;7.23;100.00;100035.59;5040564;28;20101;-79
2023/11/13 05:38:50;;;;;;;22.83;15.18;;;;;;;7.15;100.00;100035.50;5039835;28;20069;-82
2023/11/13 05:41:16;;;;;;;27.20;15.95;;;;;;;7.13;100.00;100035.66;5044264;28;20045;-81
2023/11/13 05:43:43;;;;;;;25.13;15.80;;;;;;;7.15;100.00;100028.50;5038579;28;20087;-80
2023/11/13 05:46:09;;;;;;;25.08;15.27;;;;;;;7.31;100.00;100030.44;5038365;28;20496;-80
2023/11/13 05:48:36;;;;;;;26.55;15.07;;;;;;;7.46;100.00;100028.16;5038414;28;20136;-80
2023/11/13 05:51:06;;;;;;;25.23;15.07;;;;;;;7.27;100.00;100021.31;5038326;28;20084;-80
2023/11/13 05:53:32;;;;;;;25.50;14.73;;;;;;;7.19;100.00;100013.44;5038247;28;20053;-80
2023/11/13 05:55:59;;;;;;;22.48;14.18;;;;;;;7.19;100.00;100005.63;5038957;28;20175;-78
2023/11/13 05:58:26;;;;;;;23.33;13.85;;;;;;;7.28;100.00;100000.34;5037685;28;20151;-79
2023/11/13 06:00:52;;;;;;;20.33;13.30;;;;;;;7.35;100.00;99995.34;5036923;28;20421;-80
2023/11/13 06:03:19;;;;;;;21.15;14.75;;;;;;;7.43;100.00;99997.22;5037993;28;20487;-80
2023/11/13 06:05:46;;;;;;;23.38;13.95;;;;;;;7.46;100.00;100002.94;5038283;28;20045;-80
2023/11/13 06:08:14;;;;;;;19.00;12.25;;;;;;;7.56;100.00;99995.03;5038190;28;20053;-79
2023/11/13 06:10:40;;;;;;;23.38;13.82;;;;;;;7.54;100.00;99989.97;5037797;28;20131;-80
2023/11/13 06:13:07;;;;;;;21.65;12.93;;;;;;;7.56;100.00;99987.22;5036348;28;20138;-79
2023/11/13 06:15:36;;;;;;;25.83;17.70;;;;;;;7.55;100.00;99981.19;5032687;28;20053;-80
2023/11/13 06:18:03;;;;;;;17.83;10.88;;;;;;;7.56;100.00;99967.19;5036350;28;20518;-80
2023/11/13 06:20:29;;;;;;;17.67;11.10;;;;;;;7.50;100.00;99967.00;5036746;28;20432;-80
2023/11/13 06:22:56;;;;;;;27.10;17.77;;;;;;;7.55;100.00;99969.97;5037482;28;20128;-81
2023/11/13 06:25:24;;;;;;;20.70;12.80;;;;;;;7.67;100.00;99973.94;5037627;28;20108;-80
2023/11/13 06:27:52;;;;;;;17.45;10.60;;;;;;;7.52;100.00;99980.69;5036507;28;20103;-81
2023/11/13 06:30:19;;;;;;;17.02;10.18;;;;;;;7.55;100.00;99989.00;5031099;28;20161;-81
2023/11/13 06:32:47;;;;;;;16.63;12.13;;;;;;;7.71;100.00;99984.84;5037752;28;20109;-81
2023/11/13 06:35:14;;;;;;;18.73;10.60;;;;;;;7.68;100.00;99972.16;5037079;28;20045;-79
2023/11/13 06:37:42;;;;;;;13.20;9.65;;;;;;;7.76;100.00;99974.81;5036674;28;20461;-81
2023/11/13 06:40:09;;;;;;;17.38;9.88;;;;;;;7.80;100.00;99976.13;5037558;28;20060;-81
2023/11/13 06:42:37;;;;;;;23.52;10.15;;;;;;;7.87;100.00;99979.75;5035807;28;20571;-80
2023/11/13 06:45:04;;;;;;;16.83;9.48;;;;;;;7.80;100.00;99971.75;5036756;28;20136;-80
2023/11/13 06:47:31;;;;;;;13.10;9.15;;;;;;;7.73;100.00;99973.31;5037172;28;20068;-79
2023/11/13 06:49:58;;;;;;;14.63;9.30;;;;;;;7.69;100.00;99968.56;5036457;28;20531;-79
2023/11/13 06:52:24;;;;;;;16.17;9.50;;;;;;;7.86;100.00;99980.72;5036907;28;20107;-80
2023/11/13 06:54:54;;;;;;;16.50;8.82;;;;;;;7.83;100.00;99975.81;5036482;28;20088;-80
2023/11/13 06:57:21;;;;;;;14.95;9.75;;;;;;;7.89;100.00;99977.81;5030393;28;20474;-80
2023/11/13 06:59:49;;;;;;;18.02;8.70;;;;;;;7.97;100.00;99981.28;5034707;28;20057;-81
2023/11/13 07:02:19;;;;;;;13.73;8.65;;;;;;;8.06;100.00;99983.91;5035248;28;20049;-80
2023/11/13 07:04:45;;;;;;;17.05;8.77;;;;;;;8.14;100.00;99992.59;5035347;28;20047;-79
2023/11/13 07:07:12;;;;;;;13.48;8.13;;;;;;;8.15;100.00;99998.63;5033887;28;20140;-81
2023/11/13 07:09:39;;;;;;;15.23;8.10;;;;;;;8.17;100.00;100005.31;5035809;28;20057;-81
2023/11/13 07:12:07;;;;;;;16.08;7.68;;;;;;;8.22;100.00;100000.44;5036491;28;20081;-81
2023/11/13 07:14:34;;;;;;;21.85;8.93;;;;;;;8.14;100.00;99996.97;5035835;28;20099;-81
2023/11/13 07:17:02;;;;;;;14.50;8.15;;;;;;;8.24;100.00;100008.09;5036032;28;20045;-81
2023/11/13 07:19:34;;;;;;;17.95;8.52;;;;;;;8.19;100.00;100005.97;5034148;28;20045;-81
2023/11/13 07:22:02;;;;;;;20.27;8.33;;;;;;;8.38;100.00;100009.34;5032301;28;20064;-80
2023/11/13 07:24:29;;;;;;;14.75;7.93;;;;;;;8.33;100.00;100007.22;5040404;28;20446;-81
2023/11/13 07:26:55;;;;;;;15.35;7.55;;;;;;;8.39;100.00;100010.97;5035879;28;20076;-82
2023/11/13 07:29:23;;;;;;;14.65;7.75;;;;;;;8.44;100.00;100013.94;5036312;28;20088;-80
2023/11/13 07:31:50;;;;;;;17.75;7.55;;;;;;;8.59;100.00;100017.56;5035818;28;20053;-80
2023/11/13 07:34:18;;;;;;;16.60;8.50;;;;;;;8.61;100.00;100015.59;5028068;28;20104;-80
2023/11/13 07:36:44;;;;;;;15.63;6.88;;;;;;;8.72;100.00;100004.88;5033154;28;20064;-80
2023/11/13 07:39:11;;;;;;;19.13;7.63;;;;;;;8.69;100.00;100007.81;5034281;28;20117;-80
2023/11/13 07:41:38;;;;;;;22.00;7.35;;;;;;;8.82;100.00;99992.53;5035806;28;20111;-79
2023/11/13 07:44:05;;;;;;;14.30;6.65;;;;;;;8.99;100.00;99991.56;5033624;28;20137;-79
2023/11/13 07:46:33;;;;;;;16.75;6.60;;;;;;;8.96;100.00;99993.69;5032445;28;20128;-80
2023/11/13 07:49:05;;;;;;;19.88;7.15;;;;;;;9.06;100.00;99989.13;5035676;28;20056;-79
2023/11/13 07:51:47;;;;;;;24.60;7.43;;;;;;;9.14;100.00;99996.16;5030447;28;20049;-81
2023/11/13 07:54:19;;;;;;;19.58;7.65;;;;;;;9.18;100.00;99995.66;5034392;28;20073;-81
2023/11/13 07:56:51;;;;;;;19.95;8.68;;;;;;;9.20;100.00;100005.94;5033863;28;20132;-80
2023/11/13 07:59:23;;;;;;;22.27;9.48;;;;;;;9.21;100.00;99997.13;5034650;28;20411;-81
2023/11/13 08:05:45;;;;;;;;;;;;;;;;;;;;;
2023/11/13 08:12:09;;;;;;;23.55;7.45;;;;;;;9.53;100.00;99975.41;4993430;28;20078;-79
2023/11/13 08:28:36;;;;;;;21.70;7.18;;;;;;;9.64;100.00;99926.25;5035873;28;20124;-80
2023/11/13 08:31:42;;;;;;;20.15;6.68;;;;;;;9.63;100.00;99924.63;5034821;28;20049;-80
2023/11/13 08:34:44;;;;;;;14.05;5.82;;;;;;;9.49;100.00;99896.56;4997159;28;20053;-80
2023/11/13 08:41:04;;;;;;;16.48;6.55;;;;;;;9.72;100.00;99906.31;5003118;28;20062;-79
2023/11/13 08:43:44;;;;;;;16.88;6.05;;;;;;;9.70;100.00;99903.88;5019467;28;20068;-79
2023/11/13 08:53:30;;;;;;;22.23;9.70;;;;;;;9.71;100.00;99884.59;4993461;28;20556;-81
2023/11/13 09:12:48;;;;;;;;;;;;;;;;;;;;;
2023/11/13 09:22:58;;;;;;;16.65;7.35;;;;;;;9.57;100.00;99818.19;5027756;28;20513;-79
2023/11/13 09:47:20;;;;;;;8.73;4.95;;;;;;;9.74;100.00;99690.94;5010715;28;20042;-79
2023/11/13 09:50:16;;;;;;;9.18;4.90;;;;;;;9.79;100.00;99682.59;4997902;28;20077;-79
2023/11/13 09:53:25;;;;;;;11.27;5.20;;;;;;;9.83;100.00;99666.41;4959457;28;20053;-79
2023/11/13 10:09:04;;;;;;;10.77;5.50;;;;;;;10.17;100.00;99641.59;4920937;28;20397;-79
2023/11/13 10:12:19;;;;;;;10.25;6.43;;;;;;;10.30;100.00;99645.28;4967956;28;20460;-79
2023/11/13 10:24:44;;;;;;;;;;;;;;;;;;;;;
2023/11/13 10:30:35;;;;;;;6.53;4.47;;;;;;;10.44;100.00;99627.16;4950221;28;20138;-80
2023/11/13 10:33:45;;;;;;;9.18;4.47;;;;;;;10.37;100.00;99593.09;4971683;28;20065;-80
2023/11/13 10:43:14;;;;;;;13.52;8.18;;;;;;;10.67;100.00;99599.09;4829595;29;20069;-79
2023/11/13 10:49:12;;;;;;;11.07;5.18;;;;;;;10.53;100.00;99551.03;4928367;28;20117;-79
2023/11/13 10:52:07;;;;;;;7.47;4.95;;;;;;;10.56;100.00;99576.81;4971861;28;20109;-79
2023/11/13 10:54:48;;;;;;;7.45;4.50;;;;;;;10.66;100.00;99576.56;4977707;28;20062;-79
2023/11/13 10:57:39;;;;;;;11.55;4.97;;;;;;;10.78;100.00;99572.50;4978389;28;20051;-80
2023/11/13 11:00:46;;;;;;;7.82;4.65;;;;;;;10.80;100.00;99573.13;4982012;28;20056;-79
2023/11/13 11:06:37;;;;;;;;;;;;;;;10.74;100.00;99547.69;4977960;28;20058;-80
2023/11/13 11:09:23;;;;;;;7.63;4.53;;;;;;;10.75;100.00;99524.94;4977247;28;19992;-79
2023/11/13 11:12:03;;;;;;;7.35;4.93;;;;;;;10.89;100.00;99545.00;4980828;28;20062;-80
2023/11/13 11:15:01;;;;;;;10.57;4.75;;;;;;;10.58;100.00;99517.28;4976487;28;20540;-79
2023/11/13 11:18:21;;;;;;;5.68;4.28;;;;;;;10.77;100.00;99526.38;4981146;28;20054;-79
2023/11/13 11:21:35;;;;;;;7.32;4.47;;;;;;;10.92;100.00;99511.44;4985437;28;20062;-79
2023/11/13 11:24:43;;;;;;;;;;;;;;;;;;;;;
2023/11/13 11:27:35;;;;;;;5.80;4.53;;;;;;;11.13;100.00;99481.03;4975030;28;20054;-79
2023/11/13 11:30:15;;;;;;;8.27;4.93;;;;;;;10.92;100.00;99476.59;4976050;28;20485;-79
2023/11/13 11:32:54;;;;;;;12.55;5.30;;;;;;;10.89;100.00;99464.69;4986817;28;20117;-79
2023/11/13 11:35:51;;;;;;;8.85;5.05;;;;;;;10.94;100.00;99467.56;4983970;28;20088;-80
2023/11/13 11:38:33;;;;;;;9.15;5.05;;;;;;;11.01;100.00;99478.09;4986337;28;20078;-79
2023/11/13 11:41:37;;;;;;;7.30;4.65;;;;;;;10.94;100.00;99464.94;4988365;28;20046;-79
2023/11/13 11:44:24;;;;;;;11.38;5.10;;;;;;;10.98;100.00;99457.53;4980644;28;20062;-80
2023/11/13 11:47:08;;;;;;;8.07;4.65;;;;;;;11.14;100.00;99467.75;4980508;28;20081;-80
2023/11/13 11:52:58;;;;;;;8.00;5.28;;;;;;;11.22;100.00;99469.44;4978086;28;20078;-79
2023/11/13 11:55:54;;;;;;;8.57;5.65;;;;;;;11.38;100.00;99452.63;4970103;28;20047;-80
2023/11/13 11:58:25;;;;;;;8.52;5.03;;;;;;;11.27;100.00;99453.97;4978667;28;20508;-79
2023/11/13 12:00:55;;;;;;;7.93;5.15;;;;;;;11.28;100.00;99434.66;4970120;28;20255;-79
2023/11/13 12:06:37;;;;;;;10.07;5.68;;;;;;;11.55;100.00;99441.69;4969227;28;20056;-80
2023/11/13 12:09:16;;;;;;;9.57;5.50;;;;;;;11.53;100.00;99440.25;4975495;28;20051;-79
2023/11/13 12:12:04;;;;;;;8.38;5.60;;;;;;;11.53;100.00;99422.72;4976135;28;20061;-79
2023/11/13 12:14:37;;;;;;;10.30;5.13;;;;;;;11.72;100.00;99442.22;4970165;28;20054;-79
2023/11/13 12:17:10;;;;;;;9.48;5.65;;;;;;;11.60;100.00;99420.16;4974707;28;20059;-79
2023/11/13 12:19:40;;;;;;;8.48;5.50;;;;;;;11.66;100.00;99429.88;4979058;28;20572;-79
2023/11/13 12:22:21;;;;;;;9.98;5.38;;;;;;;11.64;100.00;99406.47;4980539;28;20117;-79
2023/11/13 12:24:59;;;;;;;9.35;5.13;;;;;;;11.39;100.00;99371.25;4979477;28;20113;-79
2023/11/13 12:27:38;;;;;;;9.57;5.07;;;;;;;11.35;100.00;99369.19;4979415;28;20485;-79
2023/11/13 12:30:16;;;;;;;10.02;5.53;;;;;;;11.47;100.00;99370.28;4978804;28;20059;-78
2023/11/13 12:32:58;;;;;;;10.63;5.35;;;;;;;11.44;100.00;99361.00;4979546;28;20073;-79
2023/11/13 12:35:33;;;;;;;7.82;5.50;;;;;;;11.50;100.00;99349.75;4979702;28;20525;-79
2023/11/13 12:38:13;;;;;;;9.90;5.65;;;;;;;11.74;100.00;99363.41;4978113;28;20122;-79
2023/11/13 12:41:06;;;;;;;10.30;5.70;;;;;;;11.77;100.00;99366.47;4975485;28;20061;-79
2023/11/13 12:43:50;;;;;;;7.55;5.35;;;;;;;11.78;100.00;99349.75;4979890;28;20062;-79
2023/11/13 12:49:38;;;;;;;8.05;5.43;;;;;;;11.94;100.00;99351.22;4935322;28;20059;-79
2023/11/13 12:52:54;;;;;;;;;;;;;;;;;;;;;
2023/11/13 12:55:42;;;;;;;10.43;5.82;;;;;;;11.77;100.00;99323.75;4977389;28;20057;-79
2023/11/13 13:01:15;;;;;;;10.77;6.78;;;;;;;11.83;100.00;99297.53;4972023;28;20535;-79
2023/11/13 13:03:53;;;;;;;10.25;6.50;;;;;;;12.08;100.00;99310.94;4979537;28;20059;-79
2023/11/13 13:09:44;;;;;;;11.60;7.05;;;;;;;12.00;100.00;99270.97;4974536;28;20063;-79
2023/11/13 13:12:41;;;;;;;11.07;6.50;;;;;;;12.22;100.00;99286.38;4977362;28;20093;-79
2023/11/13 13:15:53;;;;;;;11.98;7.05;;;;;;;12.38;100.00;99284.34;4978374;28;20516;-79
2023/11/13 13:18:49;;;;;;;13.75;6.53;;;;;;;12.52;100.00;99292.03;4936790;29;20134;-80
2023/11/13 13:21:28;;;;;;;9.82;5.78;;;;;;;12.49;100.00;99281.94;4953198;28;20126;-80
2023/11/13 13:24:18;;;;;;;11.20;5.25;;;;;;;12.61;100.00;99276.91;4980289;28;20478;-80
2023/11/13 13:27:05;;;;;;;;;;;;;;;;;;;;;
2023/11/13 13:36:25;;;;;;;7.05;4.50;;;;;;;13.09;100.00;99239.88;4980352;28;20104;-80
2023/11/13 13:49:24;;;;;;;7.60;3.75;;;;;;;13.26;100.00;99222.69;4977880;28;20062;-80
2023/11/13 13:51:51;;;;;;;6.00;3.35;;;;;;;13.58;100.00;99234.09;4973054;28;20051;-80
2023/11/13 13:54:18;;;;;;;6.97;3.60;;;;;;;13.66;100.00;99230.41;4979371;28;20138;-79
2023/11/13 13:56:47;;;;;;;8.82;3.67;;;;;;;13.81;100.00;99225.66;4983247;28;20058;-79
2023/11/13 13:59:16;;;;;;;5.57;3.63;;;;;;;13.91;100.00;99229.44;4983255;28;20054;-80
2023/11/13 14:01:43;;;;;;;5.28;3.20;;;;;;;13.97;100.00;99222.53;4983017;28;20134;-81
2023/11/13 14:04:09;;;;;;;6.13;3.15;;;;;;;14.13;100.00;99210.72;4979970;28;20077;-80
2023/11/13 14:06:36;;;;;;;7.10;3.53;;;;;;;14.23;100.00;99209.19;4979521;28;20082;-80
2023/11/13 14:09:09;;;;;;;5.80;3.00;;;;;;;14.28;100.00;99203.28;4978308;28;20162;-80
2023/11/13 14:11:36;;;;;;;7.22;3.28;;;;;;;14.37;100.00;99201.22;4984571;28;20062;-80
2023/11/13 14:14:03;;;;;;;5.30;3.25;;;;;;;14.42;100.00;99193.50;4985514;28;20055;-79
2023/11/13 14:16:31;;;;;;;7.10;3.47;;;;;;;14.43;100.00;99190.66;4982280;28;20086;-81
2023/11/13 14:18:59;;;;;;;4.13;2.78;;;;;;;14.46;100.00;99189.44;4980990;28;20510;-80
2023/11/13 14:21:28;;;;;;;6.78;2.72;;;;;;;14.46;100.00;99177.06;4984883;28;20086;-80